createdAt,value
2019-03-02T00:02:08.655Z,18.63
2019-03-02T00:04:42.055Z,17.60
2019-03-02T00:07:12.309Z,18.50
2019-03-02T00:09:43.090Z,17.73
2019-03-02T00:12:13.868Z,16.67
2019-03-02T00:14:44.620Z,17.10
2019-03-02T00:17:18.875Z,16.43
2019-03-02T00:19:48.056Z,15.90
2019-03-02T00:22:18.825Z,16.53
2019-03-02T00:24:49.587Z,16.57
2019-03-02T00:27:21.308Z,17.10
2019-03-02T00:29:52.899Z,22.50
2019-03-02T00:32:23.664Z,19.30
2019-03-02T00:34:54.419Z,19.30
2019-03-02T00:37:25.214Z,18.93
2019-03-02T00:39:55.973Z,21.53
2019-03-02T00:42:26.749Z,24.07
2019-03-02T00:44:57.551Z,22.13
2019-03-02T00:47:28.321Z,22.03
2019-03-02T00:50:01.033Z,23.50
2019-03-02T00:52:31.758Z,24.00
2019-03-02T00:55:04.327Z,26.53
2019-03-02T00:57:35.114Z,25.88
2019-03-02T01:00:16.415Z,26.13
2019-03-02T01:02:47.327Z,26.25
2019-03-02T01:05:18.082Z,24.77
2019-03-02T01:07:48.858Z,24.00
2019-03-02T01:10:22.715Z,25.27
2019-03-02T01:12:52.498Z,24.27
2019-03-02T01:15:23.269Z,25.30
2019-03-02T01:17:54.036Z,24.70
2019-03-02T01:20:28.561Z,29.83
2019-03-02T01:22:57.469Z,30.00
2019-03-02T01:25:28.225Z,27.20
2019-03-02T01:27:58.989Z,27.77
2019-03-02T01:30:30.861Z,27.93
2019-03-02T01:33:01.747Z,27.48
2019-03-02T01:35:32.510Z,28.20
2019-03-02T01:38:03.277Z,26.77
2019-03-02T01:40:34.034Z,26.30
2019-03-02T01:43:05.034Z,27.43
2019-03-02T01:45:36.470Z,27.85
2019-03-02T01:48:07.245Z,28.43
2019-03-02T01:50:37.998Z,31.13
2019-03-02T01:53:09.900Z,26.10
2019-03-02T01:55:41.431Z,27.20
2019-03-02T01:58:12.197Z,26.97
2019-03-02T02:00:45.802Z,27.87
2019-03-02T02:03:15.631Z,29.20
2019-03-02T02:05:46.390Z,27.43
2019-03-02T02:08:17.165Z,26.60
2019-03-02T02:10:47.926Z,26.77
2019-03-02T02:13:18.707Z,28.20
2019-03-02T02:15:49.462Z,29.57
2019-03-02T02:18:20.229Z,29.37
2019-03-02T02:20:51.659Z,28.93
2019-03-02T02:23:22.462Z,29.50
2019-03-02T02:25:53.222Z,29.90
2019-03-02T02:28:23.988Z,30.10
2019-03-02T02:30:54.743Z,31.93
2019-03-02T02:33:25.512Z,28.30
2019-03-02T02:35:56.288Z,26.57
2019-03-02T02:38:27.050Z,29.60
2019-03-02T02:40:57.898Z,27.50
2019-03-02T02:43:28.671Z,28.20
2019-03-02T02:45:59.535Z,28.87
2019-03-02T02:48:31.517Z,29.33
2019-03-02T02:51:04.314Z,28.05
2019-03-02T02:53:40.275Z,29.65
2019-03-02T02:56:08.315Z,29.10
2019-03-02T02:58:39.092Z,28.43
2019-03-02T03:01:09.852Z,28.27
2019-03-02T03:03:40.627Z,28.07
2019-03-02T03:06:11.384Z,27.83
2019-03-02T03:08:42.559Z,27.70
2019-03-02T03:11:13.427Z,27.07
2019-03-02T03:13:44.211Z,26.37
2019-03-02T03:16:16.606Z,24.97
2019-03-02T03:18:52.173Z,27.85
2019-03-02T03:21:26.794Z,25.90
2019-03-02T03:23:54.106Z,26.45
2019-03-02T03:26:25.041Z,25.30
2019-03-02T03:28:55.815Z,26.00
2019-03-02T03:31:30.997Z,26.57
2019-03-02T03:33:59.266Z,26.35
2019-03-02T03:36:33.844Z,26.10
2019-03-02T03:39:07.160Z,25.70
2019-03-02T03:41:42.859Z,24.43
2019-03-02T03:44:11.183Z,24.95
2019-03-02T03:46:41.964Z,25.20
2019-03-02T03:49:12.732Z,24.20
2019-03-02T03:51:43.503Z,24.33
2019-03-02T03:54:14.254Z,25.33
2019-03-02T03:56:45.013Z,25.20
2019-03-02T03:59:19.006Z,23.47
2019-03-02T04:01:52.121Z,23.12
2019-03-02T04:04:24.685Z,22.62
2019-03-02T04:06:54.099Z,23.50
2019-03-02T04:09:24.878Z,26.15
2019-03-02T04:11:55.638Z,23.50
2019-03-02T04:14:26.424Z,23.27
2019-03-02T04:17:00.491Z,23.30
2019-03-02T04:19:33.963Z,26.73
2019-03-02T04:22:09.518Z,22.07
2019-03-02T04:24:41.072Z,24.15
2019-03-02T04:27:15.432Z,25.37
2019-03-02T04:29:50.227Z,21.90
2019-03-02T04:32:17.560Z,24.00
2019-03-02T04:34:48.331Z,22.60
2019-03-02T04:37:23.432Z,23.70
2019-03-02T04:39:51.772Z,23.50
2019-03-02T04:42:22.526Z,21.77
2019-03-02T04:44:53.293Z,22.70
2019-03-02T04:47:26.265Z,24.73
2019-03-02T04:49:56.730Z,23.10
2019-03-02T04:52:27.488Z,21.03
2019-03-02T04:54:58.253Z,22.17
2019-03-02T04:57:29.339Z,19.60
2019-03-02T05:00:00.336Z,23.83
2019-03-02T05:02:31.056Z,21.40
2019-03-02T05:05:04.891Z,21.67
2019-03-02T05:07:34.620Z,20.10
2019-03-02T05:10:08.097Z,18.30
2019-03-02T05:12:38.858Z,22.15
2019-03-02T05:15:11.931Z,20.97
2019-03-02T05:17:44.258Z,19.80
2019-03-02T05:20:15.019Z,19.43
2019-03-02T05:22:45.776Z,17.17
2019-03-02T05:25:19.106Z,16.90
2019-03-02T05:27:49.201Z,16.32
2019-03-02T05:30:20.063Z,16.00
2019-03-02T05:32:51.381Z,13.80
2019-03-02T05:35:23.397Z,12.98
2019-03-02T05:37:54.156Z,11.90
2019-03-02T05:40:27.758Z,13.97
2019-03-02T05:42:57.585Z,13.62
2019-03-02T05:45:28.351Z,11.20
2019-03-02T05:48:00.953Z,13.07
2019-03-02T05:50:31.773Z,11.85
2019-03-02T05:53:02.534Z,10.63
2019-03-02T05:55:33.297Z,11.50
2019-03-02T05:58:04.070Z,10.77
2019-03-02T06:00:37.786Z,12.17
2019-03-02T06:03:07.485Z,12.30
2019-03-02T06:05:38.356Z,11.50
2019-03-02T06:08:09.124Z,11.57
2019-03-02T06:10:40.208Z,12.00
2019-03-02T06:13:10.985Z,11.18
2019-03-02T06:15:42.930Z,10.63
2019-03-02T06:18:14.418Z,10.25
2019-03-02T06:20:45.178Z,10.80
2019-03-02T06:23:15.949Z,10.37
2019-03-02T06:25:46.702Z,9.60
2019-03-02T06:28:19.602Z,10.20
2019-03-02T06:30:50.166Z,9.58
2019-03-02T06:33:32.620Z,9.90
2019-03-02T06:36:04.847Z,9.68
2019-03-02T06:38:36.060Z,9.55
2019-03-02T06:41:06.825Z,10.30
2019-03-02T06:43:37.582Z,10.70
2019-03-02T06:46:08.352Z,12.00
2019-03-02T06:48:41.612Z,11.37
2019-03-02T06:51:12.435Z,13.32
2019-03-02T06:53:43.357Z,13.70
2019-03-02T06:56:15.731Z,13.70
2019-03-02T06:58:46.691Z,14.60
2019-03-02T07:01:20.748Z,14.77
2019-03-02T07:03:50.139Z,14.73
2019-03-02T07:06:21.058Z,14.80
2019-03-02T07:08:51.826Z,16.10
2019-03-02T07:11:22.593Z,15.37
2019-03-02T07:13:56.116Z,16.40
2019-03-02T07:16:26.039Z,15.53
2019-03-02T07:19:01.418Z,15.63
2019-03-02T07:21:32.188Z,16.75
2019-03-02T07:24:03.020Z,14.37
2019-03-02T07:26:33.793Z,17.80
2019-03-02T07:29:04.551Z,16.40
2019-03-02T07:31:35.317Z,15.03
2019-03-02T07:34:08.787Z,15.90
2019-03-02T07:36:38.767Z,16.27
2019-03-02T07:39:09.576Z,15.73
2019-03-02T07:41:40.367Z,17.10
2019-03-02T07:44:11.179Z,15.77
2019-03-02T07:46:44.239Z,16.77
2019-03-02T07:49:14.626Z,16.52
2019-03-02T07:51:45.370Z,15.97
2019-03-02T07:54:16.137Z,15.60
2019-03-02T07:56:46.899Z,15.50
2019-03-02T07:59:17.667Z,17.23
2019-03-02T08:01:48.969Z,15.80
2019-03-02T08:04:21.154Z,16.02
2019-03-02T08:06:51.914Z,17.33
2019-03-02T08:09:25.824Z,16.20
2019-03-02T08:11:55.358Z,16.75
2019-03-02T08:14:26.122Z,15.70
2019-03-02T08:16:56.883Z,15.60
2019-03-02T08:19:27.655Z,14.67
2019-03-02T08:21:58.418Z,14.67
2019-03-02T08:24:29.188Z,14.30
2019-03-02T08:26:59.979Z,15.50
2019-03-02T08:29:30.744Z,14.27
2019-03-02T08:32:01.497Z,15.43
2019-03-02T08:34:32.269Z,15.60
2019-03-02T08:37:03.026Z,14.87
2019-03-02T08:39:33.863Z,14.27
2019-03-02T08:42:04.627Z,14.50
2019-03-02T08:44:35.389Z,17.30
2019-03-02T08:47:09.125Z,14.87
2019-03-02T08:49:41.781Z,15.10
2019-03-02T08:52:11.497Z,15.08
2019-03-02T08:54:42.354Z,13.90
2019-03-02T08:57:13.113Z,13.93
2019-03-02T08:59:43.882Z,14.20
2019-03-02T09:02:14.642Z,13.67
2019-03-02T09:04:47.290Z,15.30
2019-03-02T09:07:18.190Z,14.68
2019-03-02T09:09:48.951Z,14.80
2019-03-02T09:12:21.810Z,14.47
2019-03-02T09:14:52.393Z,14.15
2019-03-02T09:17:23.147Z,13.00
2019-03-02T09:19:55.771Z,14.27
2019-03-02T09:22:26.665Z,13.55
2019-03-02T09:24:59.219Z,12.57
2019-03-02T09:27:30.104Z,13.78
2019-03-02T09:30:01.139Z,13.93
2019-03-02T09:32:31.931Z,12.95
2019-03-02T09:35:04.417Z,12.37
2019-03-02T09:37:35.180Z,13.25
2019-03-02T09:40:17.506Z,13.10
2019-03-02T09:42:48.517Z,12.20
2019-03-02T09:45:19.495Z,13.43
2019-03-02T09:47:52.270Z,13.90
2019-03-02T09:50:23.153Z,13.60
2019-03-02T09:52:55.893Z,13.17
2019-03-02T09:55:26.593Z,11.90
2019-03-02T09:57:57.360Z,12.20
2019-03-02T10:00:29.577Z,12.23
2019-03-02T10:03:00.430Z,12.70
2019-03-02T10:05:31.207Z,11.03
2019-03-02T10:08:02.076Z,12.23
2019-03-02T10:10:33.311Z,11.57
2019-03-02T10:13:04.126Z,10.75
2019-03-02T10:15:34.914Z,11.10
2019-03-02T10:18:05.777Z,11.57
2019-03-02T10:20:38.960Z,11.90
2019-03-02T10:23:09.211Z,13.08
2019-03-02T10:25:40.038Z,10.90
2019-03-02T10:28:10.803Z,11.60
2019-03-02T10:30:41.558Z,10.90
2019-03-02T10:33:12.319Z,13.17
2019-03-02T10:35:43.161Z,11.67
2019-03-02T10:38:14.903Z,12.63
2019-03-02T10:40:46.617Z,12.40
2019-03-02T10:43:17.372Z,13.40
2019-03-02T10:45:48.351Z,13.03
2019-03-02T10:48:19.126Z,11.80
2019-03-02T10:50:49.896Z,13.23
2019-03-02T10:53:23.961Z,11.30
2019-03-02T10:55:53.366Z,11.50
2019-03-02T10:58:24.126Z,11.70
2019-03-02T11:00:54.907Z,12.30
2019-03-02T11:03:27.877Z,12.57
2019-03-02T11:06:00.330Z,13.08
2019-03-02T11:08:33.006Z,12.25
2019-03-02T11:11:08.700Z,11.03
2019-03-02T11:13:45.688Z,12.00
2019-03-02T11:16:27.834Z,11.95
2019-03-02T11:19:04.278Z,11.93
2019-03-02T11:21:39.937Z,12.40
2019-03-02T11:24:12.614Z,11.10
2019-03-02T11:26:51.101Z,10.38
2019-03-02T11:29:50.604Z,10.32
2019-03-02T11:32:33.077Z,10.72
2019-03-02T11:35:06.769Z,11.97
2019-03-02T11:37:58.085Z,12.15
2019-03-02T11:40:48.119Z,12.00
2019-03-02T11:43:36.854Z,12.63
2019-03-02T11:46:18.879Z,10.72
2019-03-02T11:48:56.888Z,10.85
2019-03-02T11:51:42.806Z,12.15
2019-03-02T11:54:18.015Z,11.73
2019-03-02T11:57:08.593Z,11.90
2019-03-02T11:59:50.211Z,11.57
2019-03-02T12:02:25.718Z,12.35
2019-03-02T12:05:16.747Z,11.73
2019-03-02T12:08:07.348Z,12.25
2019-03-02T12:10:42.823Z,12.40
2019-03-02T12:13:18.074Z,13.10
2019-03-02T12:16:01.537Z,11.35
2019-03-02T12:18:34.270Z,11.63
2019-03-02T12:21:21.244Z,11.25
2019-03-02T12:23:53.329Z,12.37
2019-03-02T12:26:32.005Z,11.40
2019-03-02T12:29:04.783Z,12.00
2019-03-02T12:31:43.362Z,11.55
2019-03-02T12:34:34.582Z,12.07
2019-03-02T12:37:07.715Z,12.93
2019-03-02T12:40:02.820Z,12.28
2019-03-02T12:42:37.198Z,10.80
2019-03-02T12:45:25.270Z,12.63
2019-03-02T12:48:10.084Z,11.33
2019-03-02T12:50:42.762Z,11.48
2019-03-02T12:53:28.672Z,11.18
2019-03-02T12:56:04.826Z,11.25
2019-03-02T12:58:40.039Z,11.78
2019-03-02T13:01:18.249Z,9.75
2019-03-02T13:03:50.923Z,11.10
2019-03-02T13:06:32.137Z,11.43
2019-03-02T13:09:16.097Z,11.73
2019-03-02T13:11:54.872Z,11.70
2019-03-02T13:14:33.466Z,10.00
2019-03-02T13:17:06.277Z,10.00
2019-03-02T13:19:47.622Z,11.78
2019-03-02T13:22:20.290Z,9.83
2019-03-02T13:25:09.342Z,11.00
2019-03-02T13:27:45.013Z,14.10
2019-03-02T13:30:29.527Z,12.00
2019-03-02T13:33:01.134Z,10.85
2019-03-02T13:35:33.814Z,11.45
2019-03-02T13:38:06.486Z,10.58
2019-03-02T13:40:39.150Z,10.00
2019-03-02T13:43:17.840Z,10.13
2019-03-02T13:45:55.133Z,11.30
2019-03-02T13:48:44.498Z,11.70
2019-03-02T13:51:26.045Z,11.40
2019-03-02T13:54:09.655Z,10.55
2019-03-02T13:57:01.020Z,12.43
2019-03-02T13:59:43.738Z,11.25
2019-03-02T14:02:35.071Z,12.63
2019-03-02T14:05:14.335Z,12.25
2019-03-02T14:07:47.042Z,12.03
2019-03-02T14:10:28.558Z,11.10
2019-03-02T14:13:03.872Z,10.70
2019-03-02T14:15:42.157Z,12.00
2019-03-02T14:18:29.648Z,12.95
2019-03-02T14:21:05.603Z,13.35
2019-03-02T14:23:40.857Z,14.25
2019-03-02T14:26:29.857Z,13.68
2019-03-02T14:29:02.534Z,11.25
2019-03-02T14:31:37.859Z,12.28
2019-03-02T14:34:11.928Z,12.63
2019-03-02T14:36:44.358Z,12.88
2019-03-02T14:39:29.691Z,12.95
2019-03-02T14:42:08.759Z,13.43
2019-03-02T14:44:44.454Z,12.47
2019-03-02T14:47:36.603Z,12.53
2019-03-02T14:50:09.422Z,13.88
2019-03-02T14:52:42.097Z,15.75
2019-03-02T14:55:29.300Z,11.50
2019-03-02T14:58:07.829Z,12.43
2019-03-02T15:00:40.530Z,12.55
2019-03-02T15:03:19.226Z,13.05
2019-03-02T15:05:53.192Z,12.50
2019-03-02T15:08:38.706Z,14.25
2019-03-02T15:11:13.889Z,13.28
2019-03-02T15:14:05.630Z,14.13
2019-03-02T15:16:38.179Z,12.83
2019-03-02T15:19:16.768Z,12.10
2019-03-02T15:21:58.290Z,13.25
2019-03-02T15:24:36.495Z,14.07
2019-03-02T15:27:16.854Z,12.90
2019-03-02T15:29:53.731Z,12.30
2019-03-02T15:32:31.371Z,13.85
2019-03-02T15:35:07.962Z,12.60
2019-03-02T15:37:40.649Z,12.68
2019-03-02T15:40:13.311Z,13.05
2019-03-02T15:43:03.918Z,13.08
2019-03-02T15:45:39.630Z,14.07
2019-03-02T15:48:18.109Z,14.40
2019-03-02T15:50:59.921Z,15.40
2019-03-02T15:53:38.469Z,13.93
2019-03-02T15:56:20.058Z,13.05
2019-03-02T15:59:01.112Z,13.93
2019-03-02T16:01:36.833Z,13.33
2019-03-02T16:04:15.311Z,13.15
2019-03-02T16:07:02.078Z,12.88
2019-03-02T16:09:51.086Z,12.63
2019-03-02T16:12:32.722Z,12.00
2019-03-02T16:15:13.646Z,17.07
2019-03-02T16:17:46.322Z,11.90
2019-03-02T16:20:21.951Z,11.93
2019-03-02T16:23:11.666Z,13.78
2019-03-02T16:26:02.242Z,13.85
2019-03-02T16:28:47.159Z,13.18
2019-03-02T16:31:22.340Z,13.13
2019-03-02T16:34:08.714Z,12.30
2019-03-02T16:36:41.486Z,15.03
2019-03-02T16:39:32.525Z,14.30
2019-03-02T16:42:07.182Z,15.43
2019-03-02T16:44:40.391Z,14.83
2019-03-02T16:47:21.913Z,13.98
2019-03-02T16:49:57.338Z,13.35
2019-03-02T16:52:32.752Z,13.35
2019-03-02T16:55:10.862Z,13.35
2019-03-02T16:57:43.868Z,12.40
2019-03-02T17:00:41.960Z,11.95
2019-03-02T17:03:20.200Z,10.08
2019-03-02T17:06:09.780Z,12.07
2019-03-02T17:08:59.493Z,12.55
2019-03-02T17:11:35.478Z,14.73
2019-03-02T17:14:21.470Z,12.80
2019-03-02T17:16:56.913Z,12.93
2019-03-02T17:19:35.446Z,12.43
2019-03-02T17:22:08.114Z,11.85
2019-03-02T17:24:43.930Z,13.25
2019-03-02T17:27:17.734Z,14.73
2019-03-02T17:29:57.342Z,15.38
2019-03-02T17:32:30.010Z,12.75
2019-03-02T17:35:02.691Z,13.00
2019-03-02T17:37:52.104Z,11.90
2019-03-02T17:40:24.845Z,12.95
2019-03-02T17:43:12.669Z,13.85
2019-03-02T17:45:48.277Z,12.10
2019-03-02T17:48:23.897Z,13.93
2019-03-02T17:51:13.175Z,13.88
2019-03-02T17:53:45.953Z,13.88
2019-03-02T17:56:21.136Z,14.00
2019-03-02T17:58:57.119Z,13.20
2019-03-02T18:01:35.845Z,12.75
2019-03-02T18:04:08.622Z,13.32
2019-03-02T18:06:47.073Z,13.93
2019-03-02T18:09:23.964Z,14.47
2019-03-02T18:11:59.789Z,13.85
2019-03-02T18:14:38.273Z,12.43
2019-03-02T18:17:19.083Z,13.95
2019-03-02T18:19:49.591Z,14.75
2019-03-02T18:22:20.366Z,14.20
2019-03-02T18:24:51.118Z,15.00
2019-03-02T18:27:21.886Z,13.10
2019-03-02T18:29:52.643Z,14.37
2019-03-02T18:32:23.505Z,14.20
2019-03-02T18:34:56.806Z,13.40
2019-03-02T18:37:30.518Z,13.53
2019-03-02T18:40:02.357Z,13.45
2019-03-02T18:42:32.293Z,13.20
2019-03-02T18:45:05.865Z,13.77
2019-03-02T18:47:36.657Z,13.75
2019-03-02T18:50:32.757Z,13.47
2019-03-02T18:53:03.607Z,13.90
2019-03-02T18:55:34.370Z,14.03
2019-03-02T18:58:05.233Z,14.80
2019-03-02T19:00:37.895Z,13.40
2019-03-02T19:03:08.766Z,15.13
2019-03-02T19:05:39.825Z,12.90
2019-03-02T19:08:11.658Z,14.50
2019-03-02T19:10:44.140Z,14.40
2019-03-02T19:13:14.957Z,14.75
2019-03-02T19:15:53.548Z,14.17
2019-03-02T19:18:18.384Z,15.75
2019-03-02T19:20:49.139Z,14.30
2019-03-02T19:23:19.909Z,14.70
2019-03-02T19:25:50.685Z,14.97
2019-03-02T19:28:21.450Z,14.33
2019-03-02T19:30:52.205Z,15.20
2019-03-02T19:33:22.976Z,16.73
2019-03-02T19:35:53.729Z,16.47
2019-03-02T19:38:24.495Z,15.90
2019-03-02T19:40:55.251Z,17.50
2019-03-02T19:43:26.014Z,18.77
2019-03-02T19:45:56.769Z,17.03
2019-03-02T19:48:27.536Z,18.90
2019-03-02T19:50:58.295Z,18.60
2019-03-02T19:53:29.170Z,17.00
2019-03-02T19:55:59.931Z,19.47
2019-03-02T19:58:30.700Z,20.63
2019-03-02T20:01:01.464Z,19.57
2019-03-02T20:03:32.230Z,18.90
2019-03-02T20:06:03.090Z,20.00
2019-03-02T20:08:33.918Z,17.27
2019-03-02T20:11:04.675Z,17.90
2019-03-02T20:13:35.446Z,17.90
2019-03-02T20:16:06.209Z,18.40
2019-03-02T20:18:36.982Z,20.20
2019-03-02T20:21:07.737Z,18.40
2019-03-02T20:23:38.607Z,18.33
2019-03-02T20:26:09.375Z,17.20
2019-03-02T20:28:40.137Z,17.77
2019-03-02T20:31:10.894Z,19.20
2019-03-02T20:33:41.658Z,17.17
2019-03-02T20:36:12.435Z,17.10
2019-03-02T20:38:43.213Z,18.53
2019-03-02T20:41:13.964Z,18.17
2019-03-02T20:43:44.730Z,18.67
2019-03-02T20:46:15.509Z,17.63
2019-03-02T20:48:46.284Z,16.80
2019-03-02T20:51:17.040Z,16.90
2019-03-02T20:53:47.806Z,19.07
2019-03-02T20:56:18.567Z,18.50
2019-03-02T20:58:49.385Z,18.30
2019-03-02T21:01:20.391Z,18.60
2019-03-02T21:03:51.162Z,17.60
2019-03-02T21:06:21.921Z,17.23
2019-03-02T21:08:52.699Z,16.90
2019-03-02T21:11:23.470Z,17.70
2019-03-02T21:13:54.237Z,18.93
2019-03-02T21:16:24.995Z,16.23
2019-03-02T21:18:55.758Z,16.93
2019-03-02T21:21:26.549Z,18.07
2019-03-02T21:23:58.193Z,17.70
2019-03-02T21:26:29.069Z,17.70
2019-03-02T21:28:59.881Z,16.57
2019-03-02T21:31:30.593Z,16.37
2019-03-02T21:34:01.449Z,16.60
2019-03-02T21:36:32.207Z,18.40
2019-03-02T21:39:04.698Z,16.50
2019-03-02T21:41:35.461Z,16.10
2019-03-02T21:44:06.216Z,16.23
2019-03-02T21:46:36.983Z,16.17
2019-03-02T21:49:07.738Z,17.57
2019-03-02T21:51:38.504Z,15.93
2019-03-02T21:54:09.265Z,18.17
2019-03-02T21:56:40.026Z,16.93
2019-03-02T21:59:10.892Z,15.77
2019-03-02T22:01:41.657Z,16.50
2019-03-02T22:04:12.418Z,15.63
2019-03-02T22:06:43.181Z,14.53
2019-03-02T22:09:13.952Z,15.07
2019-03-02T22:11:44.722Z,14.20
2019-03-02T22:14:15.488Z,14.70
2019-03-02T22:16:46.274Z,14.17
2019-03-02T22:19:17.033Z,14.30
2019-03-02T22:21:47.805Z,14.53
2019-03-02T22:24:18.561Z,15.43
2019-03-02T22:26:49.332Z,14.37
2019-03-02T22:29:20.096Z,14.13
2019-03-02T22:31:50.858Z,11.90
2019-03-02T22:34:21.619Z,12.70
2019-03-02T22:36:52.427Z,13.20
2019-03-02T22:39:23.190Z,13.40
2019-03-02T22:41:53.958Z,13.40
2019-03-02T22:44:24.720Z,14.40
2019-03-02T22:46:55.487Z,13.20
2019-03-02T22:49:26.247Z,13.03
2019-03-02T22:51:57.009Z,12.60
2019-03-02T22:54:27.766Z,12.60
2019-03-02T22:56:58.550Z,13.40
2019-03-02T22:59:29.315Z,13.03
2019-03-02T23:02:03.893Z,13.43
2019-03-02T23:04:34.759Z,13.15
2019-03-02T23:07:05.535Z,10.97
2019-03-02T23:09:36.305Z,11.50
2019-03-02T23:12:07.078Z,12.17
2019-03-02T23:14:37.838Z,11.87
2019-03-02T23:17:08.606Z,12.87
2019-03-02T23:19:39.362Z,11.70
2019-03-02T23:22:10.129Z,11.60
2019-03-02T23:24:40.965Z,11.27
2019-03-02T23:27:11.734Z,12.03
2019-03-02T23:29:42.497Z,11.50
2019-03-02T23:32:13.265Z,11.47
2019-03-02T23:34:44.029Z,10.60
2019-03-02T23:37:14.799Z,12.23
2019-03-02T23:39:45.562Z,11.40
2019-03-02T23:42:17.354Z,10.60
2019-03-02T23:44:48.128Z,11.30
2019-03-02T23:47:18.934Z,11.67
2019-03-02T23:49:49.692Z,11.90
2019-03-02T23:52:20.445Z,10.33
2019-03-02T23:54:51.213Z,11.67
2019-03-02T23:57:21.972Z,10.50
2019-03-02T23:59:52.736Z,10.20
